createdAt,value
2022-12-27T00:01:52.211Z,18.05
2022-12-27T00:04:20.521Z,18.55
2022-12-27T00:06:49.188Z,16.35
2022-12-27T00:09:17.387Z,19.95
2022-12-27T00:11:46.300Z,16.98
2022-12-27T00:14:14.690Z,18.70
2022-12-27T00:16:43.245Z,17.80
2022-12-27T00:19:11.369Z,16.08
2022-12-27T00:21:39.693Z,16.33
2022-12-27T00:24:08.473Z,20.17
2022-12-27T00:26:36.703Z,16.67
2022-12-27T00:29:05.648Z,15.60
2022-12-27T00:31:34.614Z,14.73
2022-12-27T00:34:04.855Z,14.85
2022-12-27T00:36:33.699Z,13.98
2022-12-27T00:41:30.230Z,17.60
2022-12-27T00:43:59.587Z,12.68
2022-12-27T00:46:27.980Z,13.55
2022-12-27T00:48:56.356Z,14.27
2022-12-27T00:51:25.607Z,11.70
2022-12-27T00:53:55.630Z,12.73
2022-12-27T00:56:30.383Z,14.23
2022-12-27T00:59:00.734Z,11.32
2022-12-27T01:01:31.277Z,13.27
2022-12-27T01:04:01.073Z,11.73
2022-12-27T01:06:33.236Z,14.05
2022-12-27T01:09:02.865Z,12.43
2022-12-27T01:11:31.672Z,11.93
2022-12-27T01:14:01.786Z,9.77
2022-12-27T01:16:32.011Z,10.55
2022-12-27T01:19:01.424Z,16.75
2022-12-27T01:21:30.536Z,10.85
2022-12-27T01:26:29.318Z,10.60
2022-12-27T01:28:57.744Z,10.80
2022-12-27T01:31:29.284Z,10.20
2022-12-27T01:34:01.644Z,9.05
2022-12-27T01:36:31.743Z,8.88
2022-12-27T01:39:00.619Z,9.70
2022-12-27T01:41:38.406Z,9.63
2022-12-27T01:44:40.316Z,10.70
2022-12-27T01:47:31.780Z,7.82
2022-12-27T01:50:33.786Z,8.38
2022-12-27T01:53:23.305Z,9.50
2022-12-27T01:55:51.844Z,8.57
2022-12-27T01:58:24.594Z,10.45
2022-12-27T02:00:54.172Z,10.30
2022-12-27T02:03:30.105Z,9.10
2022-12-27T02:06:00.609Z,8.55
2022-12-27T02:08:49.503Z,9.18
2022-12-27T02:11:20.497Z,7.82
2022-12-27T02:13:48.775Z,9.10
2022-12-27T02:16:19.661Z,8.75
2022-12-27T02:18:48.211Z,10.35
2022-12-27T02:21:44.994Z,7.18
2022-12-27T02:24:29.018Z,7.38
2022-12-27T02:27:05.643Z,9.52
2022-12-27T02:29:51.865Z,9.55
2022-12-27T02:32:33.426Z,8.43
2022-12-27T02:35:21.795Z,7.28
2022-12-27T02:37:55.699Z,8.70
2022-12-27T02:40:26.950Z,7.53
2022-12-27T02:42:56.573Z,8.00
2022-12-27T02:45:30.106Z,7.30
2022-12-27T02:47:59.094Z,7.90
2022-12-27T02:53:28.630Z,7.80
2022-12-27T02:56:18.261Z,8.05
2022-12-27T02:59:07.873Z,7.20
2022-12-27T03:02:11.933Z,7.55
2022-12-27T03:05:05.194Z,8.25
2022-12-27T03:07:51.781Z,6.38
2022-12-27T03:10:33.695Z,8.27
2022-12-27T03:13:11.177Z,6.55
2022-12-27T03:16:03.945Z,7.00
2022-12-27T03:18:56.030Z,7.50
2022-12-27T03:21:30.720Z,6.85
2022-12-27T03:24:02.001Z,8.57
2022-12-27T03:26:36.287Z,6.95
2022-12-27T03:29:07.657Z,8.88
2022-12-27T03:31:44.521Z,9.30
2022-12-27T03:34:16.981Z,7.28
2022-12-27T03:36:45.371Z,7.35
2022-12-27T03:39:25.690Z,7.25
2022-12-27T03:42:00.878Z,9.50
2022-12-27T03:44:29.186Z,6.47
2022-12-27T03:47:04.991Z,7.57
2022-12-27T03:49:40.398Z,6.88
2022-12-27T03:52:26.935Z,7.53
2022-12-27T03:54:56.314Z,6.45
2022-12-27T03:57:27.484Z,7.03
2022-12-27T03:59:56.016Z,7.05
2022-12-27T04:02:24.738Z,9.18
2022-12-27T04:07:21.052Z,6.30
2022-12-27T04:09:49.557Z,7.35
2022-12-27T04:12:18.026Z,11.68
2022-12-27T04:14:46.255Z,8.30
2022-12-27T04:17:14.652Z,6.72
2022-12-27T04:19:42.873Z,6.88
2022-12-27T04:22:11.075Z,7.03
2022-12-27T04:24:39.442Z,6.85
2022-12-27T04:27:07.737Z,7.78
2022-12-27T04:29:35.925Z,6.72
2022-12-27T04:32:04.069Z,5.75
2022-12-27T04:34:32.372Z,7.70
2022-12-27T04:37:00.676Z,5.43
2022-12-27T04:39:28.935Z,5.65
2022-12-27T04:41:57.287Z,7.45
2022-12-27T04:44:26.993Z,5.15
2022-12-27T04:46:55.068Z,5.40
2022-12-27T04:49:29.208Z,7.32
2022-12-27T04:51:57.437Z,6.53
2022-12-27T04:54:25.822Z,8.30
2022-12-27T04:56:55.423Z,6.50
2022-12-27T04:59:23.740Z,6.95
2022-12-27T05:01:52.166Z,7.93
2022-12-27T05:04:20.484Z,6.20
2022-12-27T05:06:49.954Z,6.25
2022-12-27T05:09:23.035Z,7.00
2022-12-27T05:11:51.638Z,5.88
2022-12-27T05:14:19.821Z,5.60
2022-12-27T05:17:00.394Z,6.65
2022-12-27T05:19:28.674Z,5.90
2022-12-27T05:21:56.822Z,7.60
2022-12-27T05:24:25.099Z,5.13
2022-12-27T05:26:56.840Z,7.28
2022-12-27T05:29:25.095Z,7.55
2022-12-27T05:31:53.367Z,5.10
2022-12-27T05:34:21.580Z,6.63
2022-12-27T05:36:49.907Z,5.95
2022-12-27T05:39:18.117Z,6.88
2022-12-27T05:41:46.385Z,5.93
2022-12-27T05:44:14.584Z,5.30
2022-12-27T05:46:42.926Z,7.38
2022-12-27T05:49:11.236Z,6.50
2022-12-27T05:51:39.625Z,5.20
2022-12-27T05:54:07.806Z,5.53
2022-12-27T05:56:36.149Z,7.18
2022-12-27T05:59:05.307Z,6.35
2022-12-27T06:01:33.803Z,4.78
2022-12-27T06:04:02.036Z,5.07
2022-12-27T06:06:30.747Z,5.00
2022-12-27T06:08:58.907Z,5.50
2022-12-27T06:11:27.152Z,5.20
2022-12-27T06:13:56.289Z,6.10
2022-12-27T06:18:52.836Z,4.97
2022-12-27T06:21:22.534Z,5.07
2022-12-27T06:23:51.236Z,5.00
2022-12-27T06:26:27.979Z,6.30
2022-12-27T06:28:57.917Z,5.32
2022-12-27T06:31:27.344Z,7.43
2022-12-27T06:33:56.446Z,5.75
2022-12-27T06:36:26.651Z,4.55
2022-12-27T06:38:54.909Z,5.72
2022-12-27T06:41:23.650Z,6.38
2022-12-27T06:46:24.055Z,5.25
2022-12-27T06:48:53.672Z,6.28
2022-12-27T06:51:22.260Z,6.18
2022-12-27T06:53:50.751Z,4.93
2022-12-27T06:56:21.197Z,5.90
2022-12-27T06:58:51.111Z,5.15
2022-12-27T07:01:21.153Z,5.82
2022-12-27T07:03:55.033Z,4.40
2022-12-27T07:06:25.990Z,4.88
2022-12-27T07:08:54.937Z,5.50
2022-12-27T07:13:55.445Z,8.18
2022-12-27T07:16:28.763Z,11.73
2022-12-27T07:18:59.118Z,8.32
2022-12-27T07:21:29.710Z,7.93
2022-12-27T07:23:58.427Z,12.00
2022-12-27T07:26:30.297Z,9.02
2022-12-27T07:29:01.457Z,9.63
2022-12-27T07:31:32.620Z,10.35
2022-12-27T07:34:03.013Z,6.07
2022-12-27T07:36:36.007Z,4.68
2022-12-27T07:39:05.664Z,5.32
2022-12-27T07:41:34.285Z,8.20
2022-12-27T07:44:03.401Z,5.63
2022-12-27T07:46:31.549Z,7.50
2022-12-27T07:49:00.689Z,5.38
2022-12-27T07:51:30.038Z,6.88
2022-12-27T07:53:58.527Z,8.80
2022-12-27T07:56:29.067Z,7.47
2022-12-27T07:59:00.141Z,4.93
2022-12-27T08:01:31.202Z,5.72
2022-12-27T08:03:59.656Z,6.38
2022-12-27T08:06:35.776Z,4.80
2022-12-27T08:09:07.013Z,7.30
2022-12-27T08:11:35.550Z,8.18
2022-12-27T08:14:04.883Z,7.43
2022-12-27T08:16:33.207Z,9.65
2022-12-27T08:19:08.203Z,11.02
2022-12-27T08:21:36.951Z,9.73
2022-12-27T08:24:05.918Z,7.03
2022-12-27T08:26:34.129Z,9.10
2022-12-27T08:29:02.355Z,5.93
2022-12-27T08:31:30.884Z,7.60
2022-12-27T08:33:59.283Z,8.45
2022-12-27T08:39:16.194Z,7.18
2022-12-27T08:41:44.634Z,7.55
2022-12-27T08:48:02.825Z,6.72
2022-12-27T08:50:31.927Z,6.80
2022-12-27T08:53:02.270Z,7.43
2022-12-27T08:55:31.262Z,5.60
2022-12-27T08:58:09.206Z,6.72
2022-12-27T09:00:42.390Z,6.10
2022-12-27T09:03:11.337Z,5.03
2022-12-27T09:05:41.904Z,4.97
2022-12-27T09:08:11.395Z,6.28
2022-12-27T09:10:40.317Z,7.40
2022-12-27T09:15:38.008Z,4.88
2022-12-27T09:18:07.397Z,5.75
2022-12-27T09:20:36.428Z,7.63
2022-12-27T09:23:06.032Z,6.95
2022-12-27T09:25:36.013Z,5.05
2022-12-27T09:28:05.260Z,6.10
2022-12-27T09:30:37.094Z,4.75
2022-12-27T09:33:06.211Z,8.05
2022-12-27T09:35:38.662Z,5.90
2022-12-27T09:38:08.137Z,6.32
2022-12-27T09:40:39.402Z,6.07
2022-12-27T09:43:22.192Z,4.95
2022-12-27T09:45:56.000Z,5.88
2022-12-27T09:48:37.041Z,5.38
2022-12-27T09:51:43.866Z,6.53
2022-12-27T09:54:16.654Z,36.63
2022-12-27T09:57:18.167Z,14.63
2022-12-27T10:02:27.369Z,8.93
2022-12-27T10:07:55.678Z,9.68
2022-12-27T10:10:33.027Z,8.10
2022-12-27T10:13:17.777Z,6.70
2022-12-27T10:15:57.814Z,4.47
2022-12-27T10:18:40.834Z,6.63
2022-12-27T10:21:27.169Z,6.28
2022-12-27T10:24:48.959Z,10.70
2022-12-27T10:27:26.162Z,5.80
2022-12-27T10:29:57.102Z,7.05
2022-12-27T10:32:26.303Z,8.68
2022-12-27T10:35:01.329Z,6.55
2022-12-27T10:37:29.700Z,6.80
2022-12-27T10:40:16.197Z,5.20
2022-12-27T10:43:22.247Z,5.32
2022-12-27T10:45:50.645Z,5.30
2022-12-27T10:48:36.442Z,6.05
2022-12-27T10:51:15.472Z,5.13
2022-12-27T10:53:46.914Z,4.95
2022-12-27T10:56:19.849Z,7.18
2022-12-27T10:58:56.523Z,7.07
2022-12-27T11:01:32.472Z,7.13
2022-12-27T11:04:21.877Z,4.43
2022-12-27T11:07:18.322Z,5.30
2022-12-27T11:09:51.123Z,6.78
2022-12-27T11:12:27.396Z,6.68
2022-12-27T11:15:00.409Z,6.15
2022-12-27T11:17:46.810Z,6.72
2022-12-27T11:20:18.262Z,6.13
2022-12-27T11:22:54.177Z,5.82
2022-12-27T11:25:23.319Z,5.18
2022-12-27T11:28:04.290Z,3.58
2022-12-27T11:30:41.756Z,4.57
2022-12-27T11:33:49.878Z,5.53
2022-12-27T11:36:34.611Z,4.82
2022-12-27T11:39:03.555Z,4.05
2022-12-27T11:44:35.049Z,6.22
2022-12-27T11:47:15.373Z,6.38
2022-12-27T11:50:08.596Z,4.95
2022-12-27T11:53:08.984Z,5.60
2022-12-27T11:56:08.367Z,4.75
2022-12-27T11:58:55.128Z,5.43
2022-12-27T12:01:42.061Z,5.20
2022-12-27T12:04:22.788Z,5.68
2022-12-27T12:07:20.445Z,6.20
2022-12-27T12:10:04.065Z,4.10
2022-12-27T12:13:13.581Z,8.35
2022-12-27T12:16:26.509Z,5.15
2022-12-27T12:19:10.009Z,4.35
2022-12-27T12:22:00.394Z,5.00
2022-12-27T12:24:55.873Z,7.80
2022-12-27T12:28:29.967Z,5.38
2022-12-27T12:31:38.487Z,6.43
2022-12-27T12:34:12.908Z,4.38
2022-12-27T12:36:52.998Z,7.90
2022-12-27T12:39:45.056Z,4.63
2022-12-27T12:42:29.829Z,4.25
2022-12-27T12:45:36.294Z,5.00
2022-12-27T12:48:29.041Z,6.00
2022-12-27T12:51:21.657Z,6.53
2022-12-27T12:54:08.454Z,5.32
2022-12-27T12:57:02.492Z,6.70
2022-12-27T12:59:49.145Z,5.53
2022-12-27T13:03:04.452Z,5.63
2022-12-27T13:06:11.231Z,4.63
2022-12-27T13:08:56.641Z,6.53
2022-12-27T13:12:09.696Z,5.47
2022-12-27T13:15:07.342Z,4.55
2022-12-27T13:17:41.439Z,5.60
2022-12-27T13:20:43.466Z,5.03
2022-12-27T13:23:36.102Z,5.57
2022-12-27T13:26:35.268Z,4.75
2022-12-27T13:29:27.949Z,9.55
2022-12-27T13:31:59.441Z,6.32
2022-12-27T13:34:38.457Z,5.60
2022-12-27T13:37:23.780Z,7.13
2022-12-27T13:40:00.893Z,5.97
2022-12-27T13:42:44.535Z,6.38
2022-12-27T13:46:09.383Z,4.28
2022-12-27T13:49:00.490Z,4.38
2022-12-27T13:51:35.133Z,6.30
2022-12-27T13:54:25.106Z,5.82
2022-12-27T13:57:10.560Z,6.88
2022-12-27T13:59:57.027Z,6.13
2022-12-27T14:02:42.644Z,8.30
2022-12-27T14:05:34.126Z,5.07
2022-12-27T14:08:12.097Z,7.95
2022-12-27T14:10:55.336Z,5.72
2022-12-27T14:13:39.524Z,4.97
2022-12-27T14:16:13.727Z,6.97
2022-12-27T14:19:08.325Z,6.97
2022-12-27T14:21:51.549Z,6.68
2022-12-27T14:24:32.201Z,8.40
2022-12-27T14:27:06.639Z,6.28
2022-12-27T14:30:06.320Z,8.18
2022-12-27T14:32:45.035Z,5.50
2022-12-27T14:38:19.932Z,5.45
2022-12-27T14:40:51.284Z,7.47
2022-12-27T14:43:50.404Z,6.13
2022-12-27T14:46:37.292Z,4.93
2022-12-27T14:49:44.185Z,6.35
2022-12-27T14:52:41.736Z,7.05
2022-12-27T14:55:47.520Z,6.07
2022-12-27T14:58:31.052Z,6.70
2022-12-27T15:01:31.491Z,8.38
2022-12-27T15:04:22.354Z,5.57
2022-12-27T15:07:24.727Z,6.22
2022-12-27T15:10:16.547Z,5.60
2022-12-27T15:13:17.446Z,7.10
2022-12-27T15:16:20.179Z,7.72
2022-12-27T15:18:54.843Z,5.82
2022-12-27T15:21:41.897Z,6.47
2022-12-27T15:24:39.307Z,6.93
2022-12-27T15:27:31.870Z,5.50
2022-12-27T15:30:28.903Z,6.00
2022-12-27T15:33:06.362Z,6.43
2022-12-27T15:35:51.372Z,5.18
2022-12-27T15:38:36.219Z,5.93
2022-12-27T15:41:24.345Z,6.65
2022-12-27T15:44:18.782Z,6.55
2022-12-27T15:47:12.592Z,5.25
2022-12-27T15:50:12.806Z,6.57
2022-12-27T15:53:02.185Z,5.10
2022-12-27T15:55:36.869Z,5.55
2022-12-27T15:58:08.373Z,6.95
2022-12-27T16:00:37.431Z,5.45
2022-12-27T16:03:31.539Z,6.93
2022-12-27T16:06:00.690Z,4.85
2022-12-27T16:08:39.843Z,6.07
2022-12-27T16:11:13.485Z,5.95
2022-12-27T16:13:47.974Z,6.82
2022-12-27T16:16:52.084Z,6.82
2022-12-27T16:19:40.148Z,7.43
2022-12-27T16:22:30.090Z,8.40
2022-12-27T16:24:59.221Z,6.22
2022-12-27T16:27:33.708Z,5.68
2022-12-27T16:30:02.163Z,7.43
2022-12-27T16:32:30.587Z,6.45
2022-12-27T16:35:14.558Z,6.15
2022-12-27T16:37:51.839Z,5.57
2022-12-27T16:40:27.263Z,5.68
2022-12-27T16:42:58.401Z,5.95
2022-12-27T16:45:56.402Z,6.40
2022-12-27T16:48:30.963Z,5.40
2022-12-27T16:51:21.434Z,5.82
2022-12-27T16:54:03.263Z,5.38
2022-12-27T16:56:35.032Z,5.25
2022-12-27T16:59:03.976Z,6.93
2022-12-27T17:04:57.301Z,5.00
2022-12-27T17:07:57.471Z,7.50
2022-12-27T17:10:28.547Z,5.47
2022-12-27T17:13:18.099Z,7.40
2022-12-27T17:15:52.498Z,6.07
2022-12-27T17:18:30.841Z,7.03
2022-12-27T17:21:12.847Z,7.03
2022-12-27T17:23:43.841Z,5.55
2022-12-27T17:26:39.723Z,5.20
2022-12-27T17:29:27.810Z,6.00
2022-12-27T17:32:04.164Z,5.43
2022-12-27T17:34:56.878Z,6.93
2022-12-27T17:37:50.826Z,7.28
2022-12-27T17:40:47.073Z,7.18
2022-12-27T17:43:42.696Z,7.60
2022-12-27T17:46:55.614Z,9.85
2022-12-27T17:49:29.354Z,8.48
2022-12-27T17:52:04.486Z,8.07
2022-12-27T17:54:33.212Z,8.80
2022-12-27T17:57:02.733Z,14.93
2022-12-27T17:59:32.888Z,9.77
2022-12-27T18:02:17.817Z,9.15
2022-12-27T18:04:55.362Z,11.43
2022-12-27T18:07:27.064Z,7.65
2022-12-27T18:10:17.603Z,14.10
2022-12-27T18:12:50.943Z,14.07
2022-12-27T18:15:25.078Z,13.02
2022-12-27T18:17:59.432Z,11.88
2022-12-27T18:20:27.776Z,11.18
2022-12-27T18:23:02.182Z,9.18
2022-12-27T18:25:36.639Z,8.10
2022-12-27T18:28:13.327Z,5.22
2022-12-27T18:30:48.969Z,6.78
2022-12-27T18:33:17.646Z,7.20
2022-12-27T18:35:50.445Z,8.65
2022-12-27T18:38:45.312Z,8.95
2022-12-27T18:41:20.349Z,8.05
2022-12-27T18:43:52.115Z,8.32
2022-12-27T18:46:40.534Z,6.95
2022-12-27T18:51:49.264Z,9.23
2022-12-27T18:54:29.426Z,10.07
2022-12-27T18:57:00.137Z,7.78
2022-12-27T18:59:36.737Z,7.95
2022-12-27T19:02:35.863Z,7.90
2022-12-27T19:05:20.963Z,9.23
2022-12-27T19:07:53.443Z,7.03
2022-12-27T19:10:25.113Z,8.32
2022-12-27T19:12:54.521Z,11.57
2022-12-27T19:15:45.298Z,9.52
2022-12-27T19:18:27.205Z,11.48
2022-12-27T19:20:58.675Z,10.52
2022-12-27T19:23:39.178Z,8.77
2022-12-27T19:26:19.350Z,10.18
2022-12-27T19:29:07.614Z,11.73
2022-12-27T19:31:38.761Z,10.88
2022-12-27T19:34:17.014Z,12.60
2022-12-27T19:36:46.725Z,9.35
2022-12-27T19:39:24.525Z,12.13
2022-12-27T19:41:53.890Z,11.18
2022-12-27T19:44:30.236Z,9.70
2022-12-27T19:46:58.607Z,11.50
2022-12-27T19:49:44.156Z,10.38
2022-12-27T19:52:24.668Z,13.20
2022-12-27T19:55:05.669Z,15.90
2022-12-27T19:57:34.034Z,13.93
2022-12-27T20:00:05.496Z,12.25
2022-12-27T20:02:38.321Z,11.82
2022-12-27T20:05:07.063Z,11.65
2022-12-27T20:07:35.852Z,12.63
2022-12-27T20:10:04.836Z,16.05
2022-12-27T20:12:33.417Z,14.45
2022-12-27T20:15:01.825Z,12.10
2022-12-27T20:19:58.692Z,14.00
2022-12-27T20:22:26.834Z,13.10
2022-12-27T20:24:55.408Z,15.73
2022-12-27T20:27:24.094Z,17.33
2022-12-27T20:29:52.529Z,15.82
2022-12-27T20:32:20.700Z,17.25
2022-12-27T20:34:49.183Z,17.58
2022-12-27T20:37:22.676Z,13.82
2022-12-27T20:39:52.792Z,14.43
2022-12-27T20:42:21.062Z,14.98
2022-12-27T20:44:49.438Z,16.30
2022-12-27T20:47:17.755Z,15.30
2022-12-27T20:49:46.118Z,15.85
2022-12-27T20:52:14.369Z,16.65
2022-12-27T20:54:42.747Z,18.25
2022-12-27T20:57:13.065Z,22.23
2022-12-27T20:59:41.448Z,19.27
2022-12-27T21:02:15.187Z,19.48
2022-12-27T21:04:43.584Z,16.30
2022-12-27T21:07:12.032Z,18.90
2022-12-27T21:09:40.186Z,16.33
2022-12-27T21:12:08.737Z,14.73
2022-12-27T21:14:37.298Z,20.05
2022-12-27T21:19:34.269Z,16.23
2022-12-27T21:22:02.866Z,20.85
2022-12-27T21:24:31.283Z,22.35
2022-12-27T21:26:59.665Z,16.38
2022-12-27T21:29:29.603Z,15.85
2022-12-27T21:31:57.899Z,16.15
2022-12-27T21:34:26.224Z,15.93
2022-12-27T21:36:54.735Z,15.35
2022-12-27T21:39:22.963Z,16.55
2022-12-27T21:41:51.388Z,15.80
2022-12-27T21:44:19.557Z,21.30
2022-12-27T21:46:48.480Z,16.90
2022-12-27T21:49:17.146Z,19.50
2022-12-27T21:51:46.962Z,15.13
2022-12-27T21:54:15.458Z,15.70
2022-12-27T21:56:43.965Z,20.08
2022-12-27T21:59:12.432Z,17.70
2022-12-27T22:01:50.403Z,15.02
2022-12-27T22:04:21.908Z,17.67
2022-12-27T22:06:50.752Z,13.85
2022-12-27T22:09:19.218Z,19.83
2022-12-27T22:11:48.677Z,15.75
2022-12-27T22:14:21.772Z,16.42
2022-12-27T22:16:51.916Z,14.93
2022-12-27T22:19:21.334Z,17.80
2022-12-27T22:21:49.597Z,16.75
2022-12-27T22:24:17.838Z,15.38
2022-12-27T22:26:46.212Z,16.17
2022-12-27T22:29:14.512Z,14.77
2022-12-27T22:31:42.790Z,16.98
2022-12-27T22:34:11.181Z,18.20
2022-12-27T22:36:39.489Z,17.08
2022-12-27T22:39:09.158Z,19.90
2022-12-27T22:41:37.606Z,17.75
2022-12-27T22:44:08.628Z,18.95
2022-12-27T22:47:06.802Z,17.63
2022-12-27T22:51:53.718Z,18.05
2022-12-27T22:55:05.928Z,19.13
2022-12-27T22:57:10.464Z,26.33
2022-12-27T22:59:38.651Z,25.85
2022-12-27T23:02:07.064Z,23.70
2022-12-27T23:04:35.578Z,24.60
2022-12-27T23:07:10.215Z,27.20
2022-12-27T23:09:43.452Z,28.25
2022-12-27T23:12:13.391Z,28.38
2022-12-27T23:14:41.961Z,36.45
2022-12-27T23:19:38.054Z,29.23
2022-12-27T23:22:06.542Z,33.75
2022-12-27T23:24:34.869Z,30.50
2022-12-27T23:27:03.232Z,32.08
2022-12-27T23:29:31.605Z,29.13
2022-12-27T23:31:59.922Z,33.65
2022-12-27T23:34:29.296Z,28.65
2022-12-27T23:37:01.359Z,30.77
2022-12-27T23:39:30.008Z,32.47
2022-12-27T23:41:58.253Z,31.00
2022-12-27T23:44:33.252Z,32.30
2022-12-27T23:47:06.301Z,26.67
2022-12-27T23:49:35.314Z,31.73
2022-12-27T23:54:31.992Z,32.65
2022-12-27T23:57:20.393Z,27.23
2022-12-27T23:59:48.870Z,32.08
